sensor_id;sensor_type;location;lat;lon;timestamp;temperature;humidity
38938;DHT22;24727;51.974;20.868;2024-02-21T00:00:52;4.10;1.00
38938;DHT22;24727;51.974;20.868;2024-02-21T00:03:18;4.10;1.00
38938;DHT22;24727;51.974;20.868;2024-02-21T00:05:43;4.00;1.00
38938;DHT22;24727;51.974;20.868;2024-02-21T00:08:09;4.10;1.00
38938;DHT22;24727;51.974;20.868;2024-02-21T00:10:35;4.10;1.00
38938;DHT22;24727;51.974;20.868;2024-02-21T00:13:01;4.10;1.00
38938;DHT22;24727;51.974;20.868;2024-02-21T00:15:27;4.10;1.00
38938;DHT22;24727;51.974;20.868;2024-02-21T00:17:53;4.00;1.00
38938;DHT22;24727;51.974;20.868;2024-02-21T00:20:19;4.10;1.00
38938;DHT22;24727;51.974;20.868;2024-02-21T00:22:45;4.00;1.00
38938;DHT22;24727;51.974;20.868;2024-02-21T00:25:11;4.00;1.00
38938;DHT22;24727;51.974;20.868;2024-02-21T00:27:38;4.00;1.00
38938;DHT22;24727;51.974;20.868;2024-02-21T00:30:05;4.10;1.00
38938;DHT22;24727;51.974;20.868;2024-02-21T00:32:31;4.10;1.00
38938;DHT22;24727;51.974;20.868;2024-02-21T00:34:59;4.10;1.40
38938;DHT22;24727;51.974;20.868;2024-02-21T00:37:25;4.20;1.50
38938;DHT22;24727;51.974;20.868;2024-02-21T00:39:51;4.20;1.60
38938;DHT22;24727;51.974;20.868;2024-02-21T00:42:18;4.10;1.90
38938;DHT22;24727;51.974;20.868;2024-02-21T00:44:44;4.10;2.90
38938;DHT22;24727;51.974;20.868;2024-02-21T00:47:10;4.20;4.00
38938;DHT22;24727;51.974;20.868;2024-02-21T00:49:36;4.20;4.40
38938;DHT22;24727;51.974;20.868;2024-02-21T00:52:02;4.10;5.40
38938;DHT22;24727;51.974;20.868;2024-02-21T00:54:28;4.10;6.00
38938;DHT22;24727;51.974;20.868;2024-02-21T00:56:54;4.10;5.90
38938;DHT22;24727;51.974;20.868;2024-02-21T00:59:20;4.10;6.70
38938;DHT22;24727;51.974;20.868;2024-02-21T01:01:45;4.20;6.80
38938;DHT22;24727;51.974;20.868;2024-02-21T01:04:11;4.20;7.30
38938;DHT22;24727;51.974;20.868;2024-02-21T01:06:37;4.20;7.50
38938;DHT22;24727;51.974;20.868;2024-02-21T01:09:03;4.20;7.60
38938;DHT22;24727;51.974;20.868;2024-02-21T01:11:29;4.20;6.40
38938;DHT22;24727;51.974;20.868;2024-02-21T01:13:55;4.30;5.90
38938;DHT22;24727;51.974;20.868;2024-02-21T01:16:21;4.30;4.50
38938;DHT22;24727;51.974;20.868;2024-02-21T01:18:47;4.30;3.40
38938;DHT22;24727;51.974;20.868;2024-02-21T01:21:12;4.30;2.90
38938;DHT22;24727;51.974;20.868;2024-02-21T01:23:39;4.30;2.80
38938;DHT22;24727;51.974;20.868;2024-02-21T01:26:05;4.30;2.70
38938;DHT22;24727;51.974;20.868;2024-02-21T01:28:34;4.30;2.30
38938;DHT22;24727;51.974;20.868;2024-02-21T01:31:00;4.40;1.80
38938;DHT22;24727;51.974;20.868;2024-02-21T01:33:26;4.30;1.20
38938;DHT22;24727;51.974;20.868;2024-02-21T01:35:52;4.30;1.00
38938;DHT22;24727;51.974;20.868;2024-02-21T01:38:18;4.30;1.00
38938;DHT22;24727;51.974;20.868;2024-02-21T01:40:44;4.30;1.00
38938;DHT22;24727;51.974;20.868;2024-02-21T01:43:17;4.40;1.00
38938;DHT22;24727;51.974;20.868;2024-02-21T01:45:48;4.40;1.00
38938;DHT22;24727;51.974;20.868;2024-02-21T01:48:15;4.40;1.00
38938;DHT22;24727;51.974;20.868;2024-02-21T01:50:41;4.40;1.00
38938;DHT22;24727;51.974;20.868;2024-02-21T01:53:07;4.40;1.00
38938;DHT22;24727;51.974;20.868;2024-02-21T01:55:33;4.40;1.70
38938;DHT22;24727;51.974;20.868;2024-02-21T01:57:59;4.40;3.10
38938;DHT22;24727;51.974;20.868;2024-02-21T02:00:26;4.40;3.70
38938;DHT22;24727;51.974;20.868;2024-02-21T02:02:52;4.40;4.20
38938;DHT22;24727;51.974;20.868;2024-02-21T02:05:19;4.50;4.10
38938;DHT22;24727;51.974;20.868;2024-02-21T02:07:46;4.40;3.20
38938;DHT22;24727;51.974;20.868;2024-02-21T02:10:12;4.50;2.70
38938;DHT22;24727;51.974;20.868;2024-02-21T02:12:38;4.50;2.00
38938;DHT22;24727;51.974;20.868;2024-02-21T02:15:04;4.50;1.80
38938;DHT22;24727;51.974;20.868;2024-02-21T02:17:31;4.50;1.50
38938;DHT22;24727;51.974;20.868;2024-02-21T02:19:57;4.60;1.60
38938;DHT22;24727;51.974;20.868;2024-02-21T02:22:25;4.60;1.70
38938;DHT22;24727;51.974;20.868;2024-02-21T02:24:53;4.60;1.00
38938;DHT22;24727;51.974;20.868;2024-02-21T02:27:19;4.60;1.00
38938;DHT22;24727;51.974;20.868;2024-02-21T02:29:45;4.60;1.00
38938;DHT22;24727;51.974;20.868;2024-02-21T02:32:11;4.60;1.00
38938;DHT22;24727;51.974;20.868;2024-02-21T02:34:37;4.60;1.00
38938;DHT22;24727;51.974;20.868;2024-02-21T02:37:03;4.60;1.00
38938;DHT22;24727;51.974;20.868;2024-02-21T02:39:29;4.60;1.00
38938;DHT22;24727;51.974;20.868;2024-02-21T02:41:55;4.60;1.00
38938;DHT22;24727;51.974;20.868;2024-02-21T02:44:20;4.60;1.00
38938;DHT22;24727;51.974;20.868;2024-02-21T02:46:46;4.60;1.00
38938;DHT22;24727;51.974;20.868;2024-02-21T02:49:12;4.60;1.60
38938;DHT22;24727;51.974;20.868;2024-02-21T02:51:44;4.60;2.50
38938;DHT22;24727;51.974;20.868;2024-02-21T02:54:11;4.60;4.00
38938;DHT22;24727;51.974;20.868;2024-02-21T02:56:37;4.60;4.60
38938;DHT22;24727;51.974;20.868;2024-02-21T02:59:03;4.60;5.30
38938;DHT22;24727;51.974;20.868;2024-02-21T03:01:29;4.50;6.00
38938;DHT22;24727;51.974;20.868;2024-02-21T03:03:55;4.60;6.40
38938;DHT22;24727;51.974;20.868;2024-02-21T03:06:20;4.60;6.10
38938;DHT22;24727;51.974;20.868;2024-02-21T03:08:46;4.60;6.00
38938;DHT22;24727;51.974;20.868;2024-02-21T03:11:12;4.60;6.80
38938;DHT22;24727;51.974;20.868;2024-02-21T03:13:38;4.60;7.00
38938;DHT22;24727;51.974;20.868;2024-02-21T03:16:04;4.60;6.30
38938;DHT22;24727;51.974;20.868;2024-02-21T03:18:30;4.60;5.70
38938;DHT22;24727;51.974;20.868;2024-02-21T03:20:55;4.70;4.00
38938;DHT22;24727;51.974;20.868;2024-02-21T03:23:21;4.60;2.90
38938;DHT22;24727;51.974;20.868;2024-02-21T03:25:47;4.60;2.40
38938;DHT22;24727;51.974;20.868;2024-02-21T03:28:13;4.60;1.10
38938;DHT22;24727;51.974;20.868;2024-02-21T03:30:39;4.60;1.00
38938;DHT22;24727;51.974;20.868;2024-02-21T03:33:05;4.60;1.00
38938;DHT22;24727;51.974;20.868;2024-02-21T03:35:30;4.50;1.00
38938;DHT22;24727;51.974;20.868;2024-02-21T03:37:56;4.50;1.00
38938;DHT22;24727;51.974;20.868;2024-02-21T03:40:22;4.50;1.00
38938;DHT22;24727;51.974;20.868;2024-02-21T03:42:48;4.50;1.00
38938;DHT22;24727;51.974;20.868;2024-02-21T03:45:13;4.40;1.00
38938;DHT22;24727;51.974;20.868;2024-02-21T03:47:39;4.50;1.00
38938;DHT22;24727;51.974;20.868;2024-02-21T03:50:06;4.40;1.00
38938;DHT22;24727;51.974;20.868;2024-02-21T03:52:32;4.40;1.00
38938;DHT22;24727;51.974;20.868;2024-02-21T03:54:58;4.40;1.00
38938;DHT22;24727;51.974;20.868;2024-02-21T03:57:24;4.40;1.00
38938;DHT22;24727;51.974;20.868;2024-02-21T03:59:51;4.40;1.00
38938;DHT22;24727;51.974;20.868;2024-02-21T04:02:17;4.40;1.00
38938;DHT22;24727;51.974;20.868;2024-02-21T04:04:44;4.40;1.00
38938;DHT22;24727;51.974;20.868;2024-02-21T04:07:13;4.40;1.00
38938;DHT22;24727;51.974;20.868;2024-02-21T04:09:39;4.40;1.00
38938;DHT22;24727;51.974;20.868;2024-02-21T04:12:05;4.40;1.00
38938;DHT22;24727;51.974;20.868;2024-02-21T04:14:31;4.40;1.00
38938;DHT22;24727;51.974;20.868;2024-02-21T04:16:57;4.40;1.00
38938;DHT22;24727;51.974;20.868;2024-02-21T04:19:23;4.40;1.00
38938;DHT22;24727;51.974;20.868;2024-02-21T04:21:49;4.40;1.00
38938;DHT22;24727;51.974;20.868;2024-02-21T04:24:14;4.40;1.00
38938;DHT22;24727;51.974;20.868;2024-02-21T04:26:40;4.40;1.00
38938;DHT22;24727;51.974;20.868;2024-02-21T04:29:06;4.40;1.00
38938;DHT22;24727;51.974;20.868;2024-02-21T04:31:32;4.40;1.00
38938;DHT22;24727;51.974;20.868;2024-02-21T04:33:58;4.50;1.00
38938;DHT22;24727;51.974;20.868;2024-02-21T04:36:24;4.50;1.00
38938;DHT22;24727;51.974;20.868;2024-02-21T04:38:50;4.40;1.00
38938;DHT22;24727;51.974;20.868;2024-02-21T04:41:16;4.40;1.00
38938;DHT22;24727;51.974;20.868;2024-02-21T04:43:42;4.40;1.00
38938;DHT22;24727;51.974;20.868;2024-02-21T04:46:07;4.40;1.00
38938;DHT22;24727;51.974;20.868;2024-02-21T04:48:33;4.40;1.00
38938;DHT22;24727;51.974;20.868;2024-02-21T04:50:59;4.50;1.80
38938;DHT22;24727;51.974;20.868;2024-02-21T04:53:25;4.50;2.90
38938;DHT22;24727;51.974;20.868;2024-02-21T04:55:51;4.50;2.40
38938;DHT22;24727;51.974;20.868;2024-02-21T04:58:17;4.60;3.70
38938;DHT22;24727;51.974;20.868;2024-02-21T05:00:43;4.60;3.90
38938;DHT22;24727;51.974;20.868;2024-02-21T05:03:08;4.60;4.00
38938;DHT22;24727;51.974;20.868;2024-02-21T05:05:34;4.60;4.60
38938;DHT22;24727;51.974;20.868;2024-02-21T05:08:01;4.60;5.90
38938;DHT22;24727;51.974;20.868;2024-02-21T05:10:27;4.60;6.10
38938;DHT22;24727;51.974;20.868;2024-02-21T05:12:52;4.60;7.10
38938;DHT22;24727;51.974;20.868;2024-02-21T05:15:18;4.60;8.20
38938;DHT22;24727;51.974;20.868;2024-02-21T05:17:44;4.60;9.30
38938;DHT22;24727;51.974;20.868;2024-02-21T05:20:10;4.60;9.30
38938;DHT22;24727;51.974;20.868;2024-02-21T05:22:36;4.60;9.70
38938;DHT22;24727;51.974;20.868;2024-02-21T05:25:02;4.60;10.80
38938;DHT22;24727;51.974;20.868;2024-02-21T05:27:28;4.70;11.20
38938;DHT22;24727;51.974;20.868;2024-02-21T05:29:54;4.70;12.10
38938;DHT22;24727;51.974;20.868;2024-02-21T05:32:19;4.70;11.90
38938;DHT22;24727;51.974;20.868;2024-02-21T05:34:49;4.70;11.90
38938;DHT22;24727;51.974;20.868;2024-02-21T05:37:15;4.70;11.90
38938;DHT22;24727;51.974;20.868;2024-02-21T05:39:41;4.70;12.50
38938;DHT22;24727;51.974;20.868;2024-02-21T05:42:07;4.70;13.20
38938;DHT22;24727;51.974;20.868;2024-02-21T05:44:32;4.70;13.40
38938;DHT22;24727;51.974;20.868;2024-02-21T05:46:58;4.70;13.90
38938;DHT22;24727;51.974;20.868;2024-02-21T05:49:24;4.70;14.30
38938;DHT22;24727;51.974;20.868;2024-02-21T05:51:50;4.70;14.60
38938;DHT22;24727;51.974;20.868;2024-02-21T05:54:16;4.70;14.90
38938;DHT22;24727;51.974;20.868;2024-02-21T05:56:45;4.80;14.70
38938;DHT22;24727;51.974;20.868;2024-02-21T05:59:11;4.70;14.90
38938;DHT22;24727;51.974;20.868;2024-02-21T06:01:37;4.80;15.20
38938;DHT22;24727;51.974;20.868;2024-02-21T06:04:03;4.80;15.10
38938;DHT22;24727;51.974;20.868;2024-02-21T06:06:30;4.70;15.40
38938;DHT22;24727;51.974;20.868;2024-02-21T06:08:56;4.80;15.20
38938;DHT22;24727;51.974;20.868;2024-02-21T06:11:22;4.80;15.00
38938;DHT22;24727;51.974;20.868;2024-02-21T06:13:48;4.80;14.90
38938;DHT22;24727;51.974;20.868;2024-02-21T06:16:14;4.80;15.20
38938;DHT22;24727;51.974;20.868;2024-02-21T06:18:41;4.80;14.60
38938;DHT22;24727;51.974;20.868;2024-02-21T06:21:07;4.90;14.60
38938;DHT22;24727;51.974;20.868;2024-02-21T06:23:33;4.90;14.90
38938;DHT22;24727;51.974;20.868;2024-02-21T06:25:59;5.00;14.30
38938;DHT22;24727;51.974;20.868;2024-02-21T06:28:25;5.00;14.20
38938;DHT22;24727;51.974;20.868;2024-02-21T06:30:50;5.00;13.40
38938;DHT22;24727;51.974;20.868;2024-02-21T06:33:16;5.00;12.60
38938;DHT22;24727;51.974;20.868;2024-02-21T06:35:42;5.00;12.60
38938;DHT22;24727;51.974;20.868;2024-02-21T06:38:11;5.10;12.60
38938;DHT22;24727;51.974;20.868;2024-02-21T06:40:37;5.20;12.70
38938;DHT22;24727;51.974;20.868;2024-02-21T06:43:06;5.20;12.10
38938;DHT22;24727;51.974;20.868;2024-02-21T06:45:31;5.20;12.10
38938;DHT22;24727;51.974;20.868;2024-02-21T06:47:57;5.20;10.90
38938;DHT22;24727;51.974;20.868;2024-02-21T06:50:23;5.30;10.90
38938;DHT22;24727;51.974;20.868;2024-02-21T06:52:49;5.30;9.60
38938;DHT22;24727;51.974;20.868;2024-02-21T06:55:15;5.30;9.00
38938;DHT22;24727;51.974;20.868;2024-02-21T06:57:41;5.30;8.70
38938;DHT22;24727;51.974;20.868;2024-02-21T07:00:08;5.40;6.60
38938;DHT22;24727;51.974;20.868;2024-02-21T07:02:34;5.40;5.00
38938;DHT22;24727;51.974;20.868;2024-02-21T07:05:00;5.50;5.00
38938;DHT22;24727;51.974;20.868;2024-02-21T07:07:26;5.50;4.80
38938;DHT22;24727;51.974;20.868;2024-02-21T07:09:51;5.60;4.50
38938;DHT22;24727;51.974;20.868;2024-02-21T07:12:19;5.50;2.30
38938;DHT22;24727;51.974;20.868;2024-02-21T07:14:45;5.60;1.00
38938;DHT22;24727;51.974;20.868;2024-02-21T07:17:11;5.60;1.00
38938;DHT22;24727;51.974;20.868;2024-02-21T07:19:36;5.60;1.00
38938;DHT22;24727;51.974;20.868;2024-02-21T07:22:02;5.60;1.00
38938;DHT22;24727;51.974;20.868;2024-02-21T07:24:28;5.60;1.00
38938;DHT22;24727;51.974;20.868;2024-02-21T07:26:54;5.60;1.00
38938;DHT22;24727;51.974;20.868;2024-02-21T07:29:21;5.60;1.00
38938;DHT22;24727;51.974;20.868;2024-02-21T07:31:48;5.60;1.00
38938;DHT22;24727;51.974;20.868;2024-02-21T07:34:14;5.60;1.00
38938;DHT22;24727;51.974;20.868;2024-02-21T07:36:40;5.60;1.00
38938;DHT22;24727;51.974;20.868;2024-02-21T07:39:08;5.60;1.00
38938;DHT22;24727;51.974;20.868;2024-02-21T07:41:34;5.60;1.00
38938;DHT22;24727;51.974;20.868;2024-02-21T07:44:00;5.60;1.00
38938;DHT22;24727;51.974;20.868;2024-02-21T07:46:26;5.60;1.00
38938;DHT22;24727;51.974;20.868;2024-02-21T07:48:52;5.60;1.00
38938;DHT22;24727;51.974;20.868;2024-02-21T07:51:18;5.60;1.00
38938;DHT22;24727;51.974;20.868;2024-02-21T07:53:45;5.60;1.00
38938;DHT22;24727;51.974;20.868;2024-02-21T07:56:15;5.70;1.00
38938;DHT22;24727;51.974;20.868;2024-02-21T07:58:41;5.70;1.00
38938;DHT22;24727;51.974;20.868;2024-02-21T08:01:08;5.80;1.00
38938;DHT22;24727;51.974;20.868;2024-02-21T08:03:34;5.80;1.00
38938;DHT22;24727;51.974;20.868;2024-02-21T08:06:00;5.90;1.00
38938;DHT22;24727;51.974;20.868;2024-02-21T08:08:26;5.90;1.00
38938;DHT22;24727;51.974;20.868;2024-02-21T08:10:52;5.90;1.00
38938;DHT22;24727;51.974;20.868;2024-02-21T08:13:18;6.00;1.00
38938;DHT22;24727;51.974;20.868;2024-02-21T08:15:44;6.10;1.00
38938;DHT22;24727;51.974;20.868;2024-02-21T08:18:10;6.10;1.00
38938;DHT22;24727;51.974;20.868;2024-02-21T08:20:36;6.10;1.00
38938;DHT22;24727;51.974;20.868;2024-02-21T08:23:02;6.10;1.00
38938;DHT22;24727;51.974;20.868;2024-02-21T08:25:28;6.10;1.00
38938;DHT22;24727;51.974;20.868;2024-02-21T08:27:59;6.20;1.00
38938;DHT22;24727;51.974;20.868;2024-02-21T08:30:25;6.20;1.00
38938;DHT22;24727;51.974;20.868;2024-02-21T08:32:51;6.10;1.00
38938;DHT22;24727;51.974;20.868;2024-02-21T08:35:17;6.30;1.00
38938;DHT22;24727;51.974;20.868;2024-02-21T08:37:48;6.30;1.00
38938;DHT22;24727;51.974;20.868;2024-02-21T08:40:14;6.50;1.00
38938;DHT22;24727;51.974;20.868;2024-02-21T08:42:43;6.50;1.00
38938;DHT22;24727;51.974;20.868;2024-02-21T08:45:10;6.50;1.00
38938;DHT22;24727;51.974;20.868;2024-02-21T08:47:36;6.60;1.00
38938;DHT22;24727;51.974;20.868;2024-02-21T08:50:05;6.70;1.00
38938;DHT22;24727;51.974;20.868;2024-02-21T08:52:31;6.80;1.00
38938;DHT22;24727;51.974;20.868;2024-02-21T08:54:57;6.80;1.00
38938;DHT22;24727;51.974;20.868;2024-02-21T08:57:23;6.80;1.00
38938;DHT22;24727;51.974;20.868;2024-02-21T08:59:49;6.80;1.00
38938;DHT22;24727;51.974;20.868;2024-02-21T09:02:15;6.90;1.00
38938;DHT22;24727;51.974;20.868;2024-02-21T09:04:44;6.90;1.00
38938;DHT22;24727;51.974;20.868;2024-02-21T09:07:10;7.00;1.00
38938;DHT22;24727;51.974;20.868;2024-02-21T09:09:37;7.00;1.00
38938;DHT22;24727;51.974;20.868;2024-02-21T09:12:08;6.90;1.00
38938;DHT22;24727;51.974;20.868;2024-02-21T09:14:36;6.90;1.00
38938;DHT22;24727;51.974;20.868;2024-02-21T09:17:03;7.10;1.00
38938;DHT22;24727;51.974;20.868;2024-02-21T09:19:29;7.10;1.00
38938;DHT22;24727;51.974;20.868;2024-02-21T09:21:55;7.00;1.00
38938;DHT22;24727;51.974;20.868;2024-02-21T09:24:21;7.00;1.00
38938;DHT22;24727;51.974;20.868;2024-02-21T09:26:46;7.10;1.00
38938;DHT22;24727;51.974;20.868;2024-02-21T09:29:13;7.00;1.00
38938;DHT22;24727;51.974;20.868;2024-02-21T09:31:38;7.10;1.00
38938;DHT22;24727;51.974;20.868;2024-02-21T09:34:05;7.10;1.00
38938;DHT22;24727;51.974;20.868;2024-02-21T09:36:30;7.20;1.00
38938;DHT22;24727;51.974;20.868;2024-02-21T09:38:56;7.20;1.00
38938;DHT22;24727;51.974;20.868;2024-02-21T09:41:26;7.00;1.00
38938;DHT22;24727;51.974;20.868;2024-02-21T09:43:55;7.10;1.00
38938;DHT22;24727;51.974;20.868;2024-02-21T09:49:32;7.30;1.00
38938;DHT22;24727;51.974;20.868;2024-02-21T09:52:01;7.30;1.00
38938;DHT22;24727;51.974;20.868;2024-02-21T09:54:30;7.40;1.00
38938;DHT22;24727;51.974;20.868;2024-02-21T09:57:03;7.30;1.00
38938;DHT22;24727;51.974;20.868;2024-02-21T09:59:33;7.50;1.00
38938;DHT22;24727;51.974;20.868;2024-02-21T10:01:59;7.50;1.00
38938;DHT22;24727;51.974;20.868;2024-02-21T10:04:26;7.60;1.00
38938;DHT22;24727;51.974;20.868;2024-02-21T10:06:53;7.60;1.00
38938;DHT22;24727;51.974;20.868;2024-02-21T10:09:27;7.50;1.00
38938;DHT22;24727;51.974;20.868;2024-02-21T10:11:54;7.50;1.00
38938;DHT22;24727;51.974;20.868;2024-02-21T10:14:20;7.50;1.00
38938;DHT22;24727;51.974;20.868;2024-02-21T10:16:57;7.50;1.00
38938;DHT22;24727;51.974;20.868;2024-02-21T10:19:26;7.50;1.00
38938;DHT22;24727;51.974;20.868;2024-02-21T10:22:08;7.50;1.00
38938;DHT22;24727;51.974;20.868;2024-02-21T10:24:35;7.50;1.00
38938;DHT22;24727;51.974;20.868;2024-02-21T10:27:05;7.60;1.00
38938;DHT22;24727;51.974;20.868;2024-02-21T10:29:34;7.50;1.00
38938;DHT22;24727;51.974;20.868;2024-02-21T10:32:13;7.50;1.00
38938;DHT22;24727;51.974;20.868;2024-02-21T10:34:41;7.40;1.00
38938;DHT22;24727;51.974;20.868;2024-02-21T10:37:08;7.40;1.00
38938;DHT22;24727;51.974;20.868;2024-02-21T10:39:39;7.50;1.00
38938;DHT22;24727;51.974;20.868;2024-02-21T10:42:06;7.50;1.00
38938;DHT22;24727;51.974;20.868;2024-02-21T10:44:36;7.40;1.00
38938;DHT22;24727;51.974;20.868;2024-02-21T10:47:07;7.40;1.00
38938;DHT22;24727;51.974;20.868;2024-02-21T10:49:38;7.40;1.00
38938;DHT22;24727;51.974;20.868;2024-02-21T10:52:37;7.40;1.00
38938;DHT22;24727;51.974;20.868;2024-02-21T10:55:11;7.50;1.00
38938;DHT22;24727;51.974;20.868;2024-02-21T10:57:40;7.60;1.00
38938;DHT22;24727;51.974;20.868;2024-02-21T11:00:07;7.60;1.00
38938;DHT22;24727;51.974;20.868;2024-02-21T11:02:34;7.70;1.00
38938;DHT22;24727;51.974;20.868;2024-02-21T11:05:01;7.70;1.00
38938;DHT22;24727;51.974;20.868;2024-02-21T11:07:29;7.80;1.00
38938;DHT22;24727;51.974;20.868;2024-02-21T11:09:58;7.80;1.00
38938;DHT22;24727;51.974;20.868;2024-02-21T11:12:25;7.70;1.00
38938;DHT22;24727;51.974;20.868;2024-02-21T11:14:54;7.70;1.00
38938;DHT22;24727;51.974;20.868;2024-02-21T11:17:30;7.70;1.00
38938;DHT22;24727;51.974;20.868;2024-02-21T11:19:55;7.70;1.00
38938;DHT22;24727;51.974;20.868;2024-02-21T11:22:21;7.70;1.00
38938;DHT22;24727;51.974;20.868;2024-02-21T11:24:50;7.60;1.00
38938;DHT22;24727;51.974;20.868;2024-02-21T11:27:18;7.60;1.00
38938;DHT22;24727;51.974;20.868;2024-02-21T11:29:55;7.70;1.00
38938;DHT22;24727;51.974;20.868;2024-02-21T11:32:21;7.60;1.00
38938;DHT22;24727;51.974;20.868;2024-02-21T11:37:30;7.70;1.00
38938;DHT22;24727;51.974;20.868;2024-02-21T11:39:59;7.70;1.00
38938;DHT22;24727;51.974;20.868;2024-02-21T11:42:26;7.70;1.00
38938;DHT22;24727;51.974;20.868;2024-02-21T11:44:53;7.70;1.00
38938;DHT22;24727;51.974;20.868;2024-02-21T11:47:22;7.60;1.00
38938;DHT22;24727;51.974;20.868;2024-02-21T11:49:49;7.60;1.00
38938;DHT22;24727;51.974;20.868;2024-02-21T11:52:22;7.60;1.00
38938;DHT22;24727;51.974;20.868;2024-02-21T11:54:53;7.50;1.00
38938;DHT22;24727;51.974;20.868;2024-02-21T11:57:20;7.40;1.00
38938;DHT22;24727;51.974;20.868;2024-02-21T11:59:46;7.40;1.00
38938;DHT22;24727;51.974;20.868;2024-02-21T12:02:13;7.40;1.00
38938;DHT22;24727;51.974;20.868;2024-02-21T12:04:39;7.40;1.00
38938;DHT22;24727;51.974;20.868;2024-02-21T12:07:06;7.30;1.00
38938;DHT22;24727;51.974;20.868;2024-02-21T12:09:34;7.30;1.00
38938;DHT22;24727;51.974;20.868;2024-02-21T12:12:04;7.30;1.00
38938;DHT22;24727;51.974;20.868;2024-02-21T12:14:32;7.40;1.00
38938;DHT22;24727;51.974;20.868;2024-02-21T12:17:02;7.30;1.00
38938;DHT22;24727;51.974;20.868;2024-02-21T12:19:32;7.30;1.00
38938;DHT22;24727;51.974;20.868;2024-02-21T12:21:59;7.40;1.00
38938;DHT22;24727;51.974;20.868;2024-02-21T12:24:26;7.40;1.00
38938;DHT22;24727;51.974;20.868;2024-02-21T12:26:54;7.40;1.00
38938;DHT22;24727;51.974;20.868;2024-02-21T12:29:23;7.40;1.00
38938;DHT22;24727;51.974;20.868;2024-02-21T12:31:52;7.50;1.00
38938;DHT22;24727;51.974;20.868;2024-02-21T12:34:20;7.50;1.00
38938;DHT22;24727;51.974;20.868;2024-02-21T12:36:47;7.40;1.00
38938;DHT22;24727;51.974;20.868;2024-02-21T12:39:14;7.40;1.00
38938;DHT22;24727;51.974;20.868;2024-02-21T12:41:40;7.40;1.00
38938;DHT22;24727;51.974;20.868;2024-02-21T12:44:09;7.30;1.00
38938;DHT22;24727;51.974;20.868;2024-02-21T12:46:37;7.30;1.00
38938;DHT22;24727;51.974;20.868;2024-02-21T12:49:03;7.30;1.00
38938;DHT22;24727;51.974;20.868;2024-02-21T12:51:31;7.30;1.00
38938;DHT22;24727;51.974;20.868;2024-02-21T12:53:57;7.30;1.00
38938;DHT22;24727;51.974;20.868;2024-02-21T12:56:24;7.30;1.00
38938;DHT22;24727;51.974;20.868;2024-02-21T12:58:52;7.30;1.00
38938;DHT22;24727;51.974;20.868;2024-02-21T13:01:18;7.30;1.00
38938;DHT22;24727;51.974;20.868;2024-02-21T13:03:44;7.30;1.00
38938;DHT22;24727;51.974;20.868;2024-02-21T13:06:12;7.30;1.00
38938;DHT22;24727;51.974;20.868;2024-02-21T13:08:39;7.30;1.00
38938;DHT22;24727;51.974;20.868;2024-02-21T13:11:05;7.30;1.00
38938;DHT22;24727;51.974;20.868;2024-02-21T13:13:31;7.30;1.00
38938;DHT22;24727;51.974;20.868;2024-02-21T13:15:58;7.40;1.00
38938;DHT22;24727;51.974;20.868;2024-02-21T13:18:24;7.40;1.00
38938;DHT22;24727;51.974;20.868;2024-02-21T13:20:50;7.40;1.00
38938;DHT22;24727;51.974;20.868;2024-02-21T13:23:16;7.40;1.00
38938;DHT22;24727;51.974;20.868;2024-02-21T13:25:41;7.40;1.00
38938;DHT22;24727;51.974;20.868;2024-02-21T13:28:07;7.30;1.00
38938;DHT22;24727;51.974;20.868;2024-02-21T13:30:35;7.30;1.00
38938;DHT22;24727;51.974;20.868;2024-02-21T13:33:01;7.40;1.00
38938;DHT22;24727;51.974;20.868;2024-02-21T13:35:28;7.40;1.00
38938;DHT22;24727;51.974;20.868;2024-02-21T13:37:57;7.40;1.00
38938;DHT22;24727;51.974;20.868;2024-02-21T13:40:23;7.40;1.00
38938;DHT22;24727;51.974;20.868;2024-02-21T13:42:50;7.40;1.00
38938;DHT22;24727;51.974;20.868;2024-02-21T13:45:17;7.40;1.00
38938;DHT22;24727;51.974;20.868;2024-02-21T13:47:42;7.40;1.00
38938;DHT22;24727;51.974;20.868;2024-02-21T13:50:08;7.40;1.00
38938;DHT22;24727;51.974;20.868;2024-02-21T13:52:40;7.30;1.00
38938;DHT22;24727;51.974;20.868;2024-02-21T13:55:06;7.20;1.00
38938;DHT22;24727;51.974;20.868;2024-02-21T13:57:38;7.20;1.00
38938;DHT22;24727;51.974;20.868;2024-02-21T14:00:05;7.20;2.30
38938;DHT22;24727;51.974;20.868;2024-02-21T14:02:31;7.20;2.40
38938;DHT22;24727;51.974;20.868;2024-02-21T14:04:57;7.30;4.40
38938;DHT22;24727;51.974;20.868;2024-02-21T14:07:23;7.40;3.20
38938;DHT22;24727;51.974;20.868;2024-02-21T14:09:49;7.40;1.00
38938;DHT22;24727;51.974;20.868;2024-02-21T14:12:15;7.30;1.00
38938;DHT22;24727;51.974;20.868;2024-02-21T14:14:45;7.30;1.10
38938;DHT22;24727;51.974;20.868;2024-02-21T14:17:11;7.30;1.00
38938;DHT22;24727;51.974;20.868;2024-02-21T14:19:38;7.20;1.00
38938;DHT22;24727;51.974;20.868;2024-02-21T14:22:04;7.10;1.00
38938;DHT22;24727;51.974;20.868;2024-02-21T14:24:30;7.10;1.00
38938;DHT22;24727;51.974;20.868;2024-02-21T14:26:56;7.20;2.30
38938;DHT22;24727;51.974;20.868;2024-02-21T14:29:23;7.40;5.30
38938;DHT22;24727;51.974;20.868;2024-02-21T14:31:50;7.20;1.00
38938;DHT22;24727;51.974;20.868;2024-02-21T14:34:21;7.20;1.00
38938;DHT22;24727;51.974;20.868;2024-02-21T14:36:47;7.30;1.00
38938;DHT22;24727;51.974;20.868;2024-02-21T14:39:14;7.20;1.00
38938;DHT22;24727;51.974;20.868;2024-02-21T14:41:40;7.10;1.00
38938;DHT22;24727;51.974;20.868;2024-02-21T14:44:06;7.10;1.00
38938;DHT22;24727;51.974;20.868;2024-02-21T14:46:32;7.10;1.00
38938;DHT22;24727;51.974;20.868;2024-02-21T14:48:58;7.10;1.00
38938;DHT22;24727;51.974;20.868;2024-02-21T14:51:24;7.20;2.20
38938;DHT22;24727;51.974;20.868;2024-02-21T14:53:50;7.20;2.10
38938;DHT22;24727;51.974;20.868;2024-02-21T14:56:16;7.40;1.00
38938;DHT22;24727;51.974;20.868;2024-02-21T14:58:43;7.30;1.00
38938;DHT22;24727;51.974;20.868;2024-02-21T15:01:09;7.20;1.00
38938;DHT22;24727;51.974;20.868;2024-02-21T15:03:35;7.40;1.00
38938;DHT22;24727;51.974;20.868;2024-02-21T15:06:02;7.30;1.00
38938;DHT22;24727;51.974;20.868;2024-02-21T15:08:28;7.30;1.00
38938;DHT22;24727;51.974;20.868;2024-02-21T15:10:54;7.20;1.00
38938;DHT22;24727;51.974;20.868;2024-02-21T15:13:20;7.20;1.00
38938;DHT22;24727;51.974;20.868;2024-02-21T15:15:48;7.10;1.00
38938;DHT22;24727;51.974;20.868;2024-02-21T15:18:14;7.00;1.00
38938;DHT22;24727;51.974;20.868;2024-02-21T15:20:40;7.00;1.00
38938;DHT22;24727;51.974;20.868;2024-02-21T15:23:06;6.90;1.00
38938;DHT22;24727;51.974;20.868;2024-02-21T15:25:32;6.90;1.00
38938;DHT22;24727;51.974;20.868;2024-02-21T15:27:59;6.90;1.00
38938;DHT22;24727;51.974;20.868;2024-02-21T15:30:25;6.90;1.00
38938;DHT22;24727;51.974;20.868;2024-02-21T15:32:53;6.90;1.00
38938;DHT22;24727;51.974;20.868;2024-02-21T15:35:21;6.90;1.90
38938;DHT22;24727;51.974;20.868;2024-02-21T15:37:47;6.90;1.70
38938;DHT22;24727;51.974;20.868;2024-02-21T15:40:13;6.90;1.00
38938;DHT22;24727;51.974;20.868;2024-02-21T15:42:40;6.90;1.90
38938;DHT22;24727;51.974;20.868;2024-02-21T15:45:06;6.90;1.00
38938;DHT22;24727;51.974;20.868;2024-02-21T15:47:32;6.90;1.40